Time;durP1;ratioP1;P1;durP2;ratioP2;P2;SDS_P1;SDS_P2;PMS_P1;PMS_P2;Temp;Humidity;BMP_temperature;BMP_pressure;BME280_temperature;BME280_humidity;BME280_pressure;Samples;Min_cycle;Max_cycle;Signal;HPM_P1;HPM_P2
2022/04/11 00:00:38;;;;;;;;;5.75;2.25;;;;;;;;5065842;28;47460;-74
2022/04/11 00:03:03;;;;;;;;;9.00;7.75;;;;;;;;5057725;28;45466;-74
2022/04/11 00:05:28;;;;;;;;;10.25;7.25;;;;;;;;5054570;28;45477;-74
2022/04/11 00:07:54;;;;;;;;;8.00;7.00;;;;;;;;5056791;28;45483;-74
2022/04/11 00:10:19;;;;;;;;;9.00;7.00;;;;;;;;5058139;28;45941;-74
2022/04/11 00:12:44;;;;;;;;;5.50;4.25;;;;;;;;5055411;28;45463;-74
2022/04/11 00:15:10;;;;;;;;;9.00;6.00;;;;;;;;5054156;28;45458;-74
2022/04/11 00:17:35;;;;;;;;;7.75;7.75;;;;;;;;5054104;28;45312;-74
2022/04/11 00:20:01;;;;;;;;;8.50;7.00;;;;;;;;5053807;28;46126;-74
2022/04/11 00:22:26;;;;;;;;;7.00;6.00;;;;;;;;5058045;28;45559;-73
2022/04/11 00:24:52;;;;;;;;;7.25;7.00;;;;;;;;5055920;28;45260;-73
2022/04/11 00:27:17;;;;;;;;;4.50;4.50;;;;;;;;5053255;28;45454;-73
2022/04/11 00:29:42;;;;;;;;;7.25;5.75;;;;;;;;5053485;28;45400;-74
2022/04/11 00:32:07;;;;;;;;;4.50;3.50;;;;;;;;5053708;28;45455;-73
2022/04/11 00:34:33;;;;;;;;;6.25;5.75;;;;;;;;5053941;28;45305;-74
2022/04/11 00:36:58;;;;;;;;;5.00;5.00;;;;;;;;5056568;28;45201;-73
2022/04/11 00:39:23;;;;;;;;;4.25;4.25;;;;;;;;5053382;28;45376;-73
2022/04/11 00:41:48;;;;;;;;;3.25;2.00;;;;;;;;5053159;28;45392;-74
2022/04/11 00:44:14;;;;;;;;;2.00;2.00;;;;;;;;5053369;28;45403;-74
2022/04/11 00:46:39;;;;;;;;;4.00;4.00;;;;;;;;5053756;28;45431;-73
2022/04/11 00:49:04;;;;;;;;;4.00;4.00;;;;;;;;5055233;28;47152;-74
2022/04/11 00:51:29;;;;;;;;;4.00;4.00;;;;;;;;5053359;28;45456;-74
2022/04/11 00:53:57;;;;;;;;;3.00;3.00;;;;;;;;5053427;28;45473;-74
2022/04/11 00:56:24;;;;;;;;;3.00;3.00;;;;;;;;5053411;28;45441;-74
2022/04/11 00:58:50;;;;;;;;;6.00;4.00;;;;;;;;5053076;28;45474;-74
2022/04/11 01:01:16;;;;;;;;;2.50;2.50;;;;;;;;5054210;28;45253;-75
2022/04/11 01:03:41;;;;;;;;;4.00;4.00;;;;;;;;5054177;28;45299;-75
2022/04/11 01:06:09;;;;;;;;;4.75;4.25;;;;;;;;5053045;28;45410;-75
2022/04/11 01:08:34;;;;;;;;;4.25;4.25;;;;;;;;5052800;28;46097;-74
2022/04/11 01:11:00;;;;;;;;;3.75;3.75;;;;;;;;5055291;28;45735;-74
2022/04/11 01:13:26;;;;;;;;;5.00;4.00;;;;;;;;5053643;28;45367;-74
2022/04/11 01:15:55;;;;;;;;;4.00;3.00;;;;;;;;5055109;28;45395;-74
2022/04/11 01:18:20;;;;;;;;;3.00;3.00;;;;;;;;5052813;28;46449;-74
2022/04/11 01:20:46;;;;;;;;;3.50;3.50;;;;;;;;5052559;28;45538;-75
2022/04/11 01:23:11;;;;;;;;;4.25;4.25;;;;;;;;5053155;28;45431;-74
2022/04/11 01:25:37;;;;;;;;;4.50;3.75;;;;;;;;5052873;28;45312;-74
2022/04/11 01:28:03;;;;;;;;;2.25;2.00;;;;;;;;5054822;28;47518;-73
2022/04/11 01:30:28;;;;;;;;;4.25;4.25;;;;;;;;5052817;28;45495;-74
2022/04/11 01:32:54;;;;;;;;;6.75;5.50;;;;;;;;5052658;28;45348;-73
2022/04/11 01:35:24;;;;;;;;;4.00;4.00;;;;;;;;5053061;28;45385;-73
2022/04/11 01:37:49;;;;;;;;;4.75;4.75;;;;;;;;5038466;28;46342;-73
2022/04/11 01:40:14;;;;;;;;;4.00;4.00;;;;;;;;5053793;28;45466;-75
2022/04/11 01:42:40;;;;;;;;;3.25;3.25;;;;;;;;5053622;28;45304;-74
2022/04/11 01:45:09;;;;;;;;;7.00;4.00;;;;;;;;5056246;28;45383;-74
2022/04/11 01:47:34;;;;;;;;;5.25;4.75;;;;;;;;5052391;28;47038;-73
2022/04/11 01:49:59;;;;;;;;;7.50;6.00;;;;;;;;5052790;28;45334;-74
2022/04/11 01:52:24;;;;;;;;;4.50;4.50;;;;;;;;5053020;28;45375;-73
2022/04/11 01:54:49;;;;;;;;;6.75;5.25;;;;;;;;5054346;28;45534;-73
2022/04/11 01:57:15;;;;;;;;;4.75;4.75;;;;;;;;5052424;28;46141;-74
2022/04/11 01:59:40;;;;;;;;;5.75;5.75;;;;;;;;5052422;28;45589;-74
2022/04/11 02:02:05;;;;;;;;;5.00;4.75;;;;;;;;5052732;28;45458;-72
2022/04/11 02:04:31;;;;;;;;;5.00;5.00;;;;;;;;5052562;28;45400;-74
2022/04/11 02:06:57;;;;;;;;;5.75;5.75;;;;;;;;5040848;28;46183;-74
2022/04/11 02:09:22;;;;;;;;;3.25;3.25;;;;;;;;5051876;28;45502;-74
2022/04/11 02:11:47;;;;;;;;;8.50;5.75;;;;;;;;5056139;28;45565;-74
2022/04/11 02:14:12;;;;;;;;;4.00;4.00;;;;;;;;5052577;28;45401;-72
2022/04/11 02:16:37;;;;;;;;;3.00;3.00;;;;;;;;5052442;28;46173;-73
2022/04/11 02:19:03;;;;;;;;;5.25;4.00;;;;;;;;5054197;28;45517;-74
2022/04/11 02:21:28;;;;;;;;;6.25;6.25;;;;;;;;5052626;28;45404;-74
2022/04/11 02:23:53;;;;;;;;;6.00;6.00;;;;;;;;5051074;28;45526;-74
2022/04/11 02:26:19;;;;;;;;;5.50;5.00;;;;;;;;5055547;28;45510;-74
2022/04/11 02:28:44;;;;;;;;;3.50;3.50;;;;;;;;5055946;28;45493;-74
2022/04/11 02:31:09;;;;;;;;;4.00;4.00;;;;;;;;5057585;28;45492;-74
2022/04/11 02:33:34;;;;;;;;;4.75;4.75;;;;;;;;5055819;28;45603;-74
2022/04/11 02:35:59;;;;;;;;;5.00;5.00;;;;;;;;5055151;28;47296;-74
2022/04/11 02:38:25;;;;;;;;;3.75;3.75;;;;;;;;5055080;28;45411;-74
2022/04/11 02:40:50;;;;;;;;;4.00;4.00;;;;;;;;5055766;28;45502;-74
2022/04/11 02:43:15;;;;;;;;;4.25;4.25;;;;;;;;5056778;28;45351;-73
2022/04/11 02:45:40;;;;;;;;;4.75;4.75;;;;;;;;5055613;28;45492;-74
2022/04/11 02:48:06;;;;;;;;;7.00;4.00;;;;;;;;5055259;28;45437;-75
2022/04/11 02:50:31;;;;;;;;;3.25;3.25;;;;;;;;5054844;28;45485;-74
2022/04/11 02:52:57;;;;;;;;;3.00;3.00;;;;;;;;5054678;28;45540;-73
2022/04/11 02:55:22;;;;;;;;;6.00;6.00;;;;;;;;5055121;28;46290;-73
2022/04/11 02:57:47;;;;;;;;;5.00;5.00;;;;;;;;5056038;28;45554;-74
2022/04/11 03:00:13;;;;;;;;;6.75;6.00;;;;;;;;5054667;28;45509;-73
2022/04/11 03:02:38;;;;;;;;;5.75;4.25;;;;;;;;5054454;28;45287;-74
2022/04/11 03:05:04;;;;;;;;;5.75;4.75;;;;;;;;5054882;28;46246;-74
2022/04/11 03:07:29;;;;;;;;;5.25;4.25;;;;;;;;5054810;28;45348;-73
2022/04/11 03:09:54;;;;;;;;;3.75;3.50;;;;;;;;5058105;28;45430;-74
2022/04/11 03:12:20;;;;;;;;;6.00;5.00;;;;;;;;5054627;28;45423;-74
2022/04/11 03:14:47;;;;;;;;;5.50;5.00;;;;;;;;5054542;28;47147;-74
2022/04/11 03:17:12;;;;;;;;;3.75;3.50;;;;;;;;5054348;28;45475;-74
2022/04/11 03:19:37;;;;;;;;;7.00;6.00;;;;;;;;5055202;28;45416;-73
2022/04/11 03:22:03;;;;;;;;;4.25;4.25;;;;;;;;5042920;28;45400;-73
2022/04/11 03:24:28;;;;;;;;;5.00;5.00;;;;;;;;5054482;28;46132;-73
2022/04/11 03:26:53;;;;;;;;;6.50;5.00;;;;;;;;5054355;28;45280;-73
2022/04/11 03:29:18;;;;;;;;;4.00;4.00;;;;;;;;5054795;28;45403;-73
2022/04/11 03:31:43;;;;;;;;;5.00;5.00;;;;;;;;5054857;28;45276;-73
2022/04/11 03:34:09;;;;;;;;;6.00;5.00;;;;;;;;5056711;28;47105;-75
2022/04/11 03:36:34;;;;;;;;;5.25;4.25;;;;;;;;5053785;28;48856;-74
2022/04/11 03:38:59;;;;;;;;;4.75;4.00;;;;;;;;5054172;28;45233;-72
2022/04/11 03:41:25;;;;;;;;;6.75;5.25;;;;;;;;5053980;28;45380;-73
2022/04/11 03:43:50;;;;;;;;;5.75;4.00;;;;;;;;5054005;28;47150;-72
2022/04/11 03:46:15;;;;;;;;;4.75;4.75;;;;;;;;5055385;28;45288;-73
2022/04/11 03:48:40;;;;;;;;;6.00;5.25;;;;;;;;5055100;28;45317;-74
2022/04/11 03:51:07;;;;;;;;;3.00;3.00;;;;;;;;5053494;28;45490;-74
2022/04/11 03:53:32;;;;;;;;;11.25;6.25;;;;;;;;5053837;28;45470;-74
2022/04/11 03:55:57;;;;;;;;;5.25;4.25;;;;;;;;5054113;28;45329;-74
2022/04/11 03:58:22;;;;;;;;;4.00;4.00;;;;;;;;5054378;28;45261;-74
2022/04/11 04:00:47;;;;;;;;;4.75;4.75;;;;;;;;5055266;28;45218;-74
2022/04/11 04:03:14;;;;;;;;;6.00;5.00;;;;;;;;5053625;28;45252;-74
2022/04/11 04:05:40;;;;;;;;;4.25;3.75;;;;;;;;5053280;28;45443;-74
2022/04/11 04:08:06;;;;;;;;;4.75;4.75;;;;;;;;5054215;28;45375;-73
2022/04/11 04:10:31;;;;;;;;;1.00;1.00;;;;;;;;5062160;27;45499;-75
2022/04/11 04:12:57;;;;;;;;;3.75;3.75;;;;;;;;5055172;28;46450;-75
2022/04/11 04:15:22;;;;;;;;;6.50;4.00;;;;;;;;5053941;28;45349;-75
2022/04/11 04:17:48;;;;;;;;;4.00;4.00;;;;;;;;5053424;28;45532;-74
2022/04/11 04:20:13;;;;;;;;;5.50;4.50;;;;;;;;5052763;28;45383;-74
2022/04/11 04:22:38;;;;;;;;;4.50;4.00;;;;;;;;5053164;28;46238;-73
2022/04/11 04:25:04;;;;;;;;;4.75;4.75;;;;;;;;5055524;28;45455;-73
2022/04/11 04:27:29;;;;;;;;;4.00;4.00;;;;;;;;5053303;28;45229;-74
2022/04/11 04:29:54;;;;;;;;;4.75;4.75;;;;;;;;5052145;28;45399;-74
2022/04/11 04:32:20;;;;;;;;;10.25;10.25;;;;;;;;5052424;28;45393;-73
2022/04/11 04:34:45;;;;;;;;;12.50;12.00;;;;;;;;5053041;28;45482;-74
2022/04/11 04:37:11;;;;;;;;;5.75;5.00;;;;;;;;5054653;28;45482;-73
2022/04/11 04:39:36;;;;;;;;;6.25;4.75;;;;;;;;5053417;28;45729;-74
2022/04/11 04:42:02;;;;;;;;;6.75;6.00;;;;;;;;5052525;28;46861;-74
2022/04/11 04:44:27;;;;;;;;;9.25;7.50;;;;;;;;5052569;28;45301;-74
2022/04/11 04:46:52;;;;;;;;;9.00;7.75;;;;;;;;5052719;28;45457;-73
2022/04/11 04:49:17;;;;;;;;;7.50;5.25;;;;;;;;5053302;28;45343;-75
2022/04/11 04:51:43;;;;;;;;;3.00;2.00;;;;;;;;5053666;28;46253;-74
2022/04/11 04:54:08;;;;;;;;;8.75;6.75;;;;;;;;5052667;28;45380;-74
2022/04/11 04:56:33;;;;;;;;;2.75;2.75;;;;;;;;5052609;28;45194;-73
2022/04/11 04:58:58;;;;;;;;;6.00;6.00;;;;;;;;5051893;28;45454;-73
2022/04/11 05:01:23;;;;;;;;;5.50;4.25;;;;;;;;5040054;28;47389;-75
2022/04/11 05:03:49;;;;;;;;;4.50;4.25;;;;;;;;5051815;28;45483;-74
2022/04/11 05:06:14;;;;;;;;;4.75;4.75;;;;;;;;5052449;28;45494;-75
2022/04/11 05:08:39;;;;;;;;;4.25;4.25;;;;;;;;5053972;28;45523;-74
2022/04/11 05:11:05;;;;;;;;;12.75;9.75;;;;;;;;5052293;28;46113;-75
2022/04/11 05:13:30;;;;;;;;;7.50;7.50;;;;;;;;5049871;28;45446;-73
2022/04/11 05:15:55;;;;;;;;;5.50;5.50;;;;;;;;5063295;28;45296;-74
2022/04/11 05:18:20;;;;;;;;;7.00;7.00;;;;;;;;5053651;28;45264;-75
2022/04/11 05:20:46;;;;;;;;;6.00;6.00;;;;;;;;5051264;28;46983;-75
2022/04/11 05:23:11;;;;;;;;;7.00;7.00;;;;;;;;5051173;28;45264;-75
2022/04/11 05:25:36;;;;;;;;;6.00;6.00;;;;;;;;5052367;28;45397;-74
2022/04/11 05:28:02;;;;;;;;;9.50;8.25;;;;;;;;5054876;28;45660;-76
2022/04/11 05:30:33;;;;;;;;;7.25;6.50;;;;;;;;5052327;28;45318;-75
2022/04/11 05:32:59;;;;;;;;;9.50;9.50;;;;;;;;5051983;28;47967;-76
2022/04/11 05:35:24;;;;;;;;;6.25;6.25;;;;;;;;5058210;28;45508;-83
2022/04/11 05:37:49;;;;;;;;;5.00;5.00;;;;;;;;5063528;28;45520;-82
2022/04/11 05:40:14;;;;;;;;;4.25;4.25;;;;;;;;5049803;28;46210;-83
2022/04/11 05:42:39;;;;;;;;;8.50;7.75;;;;;;;;5053055;28;45469;-82
2022/04/11 05:45:05;;;;;;;;;7.75;6.75;;;;;;;;5045389;28;45493;-82
2022/04/11 05:47:30;;;;;;;;;11.25;9.50;;;;;;;;5047316;28;45596;-83
2022/04/11 05:49:56;;;;;;;;;12.50;10.25;;;;;;;;5052439;28;45867;-82
2022/04/11 05:52:21;;;;;;;;;12.25;10.25;;;;;;;;5054935;28;45528;-83
2022/04/11 05:54:47;;;;;;;;;14.50;13.25;;;;;;;;5055341;28;45375;-83
2022/04/11 05:57:13;;;;;;;;;11.25;11.25;;;;;;;;5052992;28;45570;-84
2022/04/11 05:59:38;;;;;;;;;14.25;14.25;;;;;;;;5056538;28;46009;-82
2022/04/11 06:02:03;;;;;;;;;15.50;15.00;;;;;;;;5059529;28;45504;-82
2022/04/11 06:04:29;;;;;;;;;15.75;13.50;;;;;;;;5055588;28;45367;-82
2022/04/11 06:06:54;;;;;;;;;10.00;10.00;;;;;;;;5056375;28;45450;-82
2022/04/11 06:09:19;;;;;;;;;13.75;9.25;;;;;;;;5052442;28;45540;-83
2022/04/11 06:11:44;;;;;;;;;13.50;9.00;;;;;;;;5054090;28;45501;-82
2022/04/11 06:14:10;;;;;;;;;7.75;7.75;;;;;;;;5053771;28;45169;-84
2022/04/11 06:16:35;;;;;;;;;7.75;6.50;;;;;;;;5054085;28;45411;-82
2022/04/11 06:19:00;;;;;;;;;11.00;10.50;;;;;;;;5038035;28;46071;-83
2022/04/11 06:21:25;;;;;;;;;10.25;7.50;;;;;;;;5038423;28;45517;-84
2022/04/11 06:23:51;;;;;;;;;11.75;8.75;;;;;;;;5057821;27;45462;-84
2022/04/11 06:26:16;;;;;;;;;10.50;10.50;;;;;;;;5064004;27;45583;-85
2022/04/11 06:28:41;;;;;;;;;14.50;14.50;;;;;;;;5060303;27;46162;-78
2022/04/11 06:31:07;;;;;;;;;11.50;9.00;;;;;;;;5055436;28;45294;-78
2022/04/11 06:33:35;;;;;;;;;10.00;8.75;;;;;;;;5054431;28;45209;-79
2022/04/11 06:36:00;;;;;;;;;6.25;6.25;;;;;;;;5055190;28;46711;-82
2022/04/11 06:38:25;;;;;;;;;8.75;8.75;;;;;;;;5054511;28;46282;-85
2022/04/11 06:40:50;;;;;;;;;15.50;15.50;;;;;;;;5053358;28;45415;-81
2022/04/11 06:43:15;;;;;;;;;9.75;8.75;;;;;;;;5055638;28;45375;-83
2022/04/11 06:45:41;;;;;;;;;9.00;7.75;;;;;;;;5054911;28;45283;-84
2022/04/11 06:48:06;;;;;;;;;7.00;6.00;;;;;;;;5053635;28;45324;-85
2022/04/11 06:50:31;;;;;;;;;7.00;7.00;;;;;;;;5054729;28;45428;-86
2022/04/11 06:52:56;;;;;;;;;7.50;7.50;;;;;;;;5055238;28;45286;-86
2022/04/11 06:55:22;;;;;;;;;11.00;9.75;;;;;;;;5054948;28;45332;-86
2022/04/11 06:57:47;;;;;;;;;10.25;9.25;;;;;;;;5057512;28;46252;-85
2022/04/11 07:00:12;;;;;;;;;9.75;8.25;;;;;;;;5055390;28;45367;-85
2022/04/11 07:02:38;;;;;;;;;9.75;7.50;;;;;;;;5057722;28;45366;-85
2022/04/11 07:05:04;;;;;;;;;15.00;11.50;;;;;;;;5038278;28;45528;-86
2022/04/11 07:07:30;;;;;;;;;10.25;7.75;;;;;;;;5055169;28;47195;-86
2022/04/11 07:09:56;;;;;;;;;11.00;10.00;;;;;;;;5053712;28;45237;-87
2022/04/11 07:12:22;;;;;;;;;7.50;7.50;;;;;;;;5055499;28;45288;-86
2022/04/11 07:14:47;;;;;;;;;10.00;8.25;;;;;;;;5056785;28;45501;-86
2022/04/11 07:17:12;;;;;;;;;6.50;6.25;;;;;;;;5056300;28;47279;-86
2022/04/11 07:19:37;;;;;;;;;13.50;12.75;;;;;;;;5059174;28;45154;-86
2022/04/11 07:22:03;;;;;;;;;11.00;8.00;;;;;;;;5061252;28;45254;-86
2022/04/11 07:24:28;;;;;;;;;12.25;11.25;;;;;;;;5056427;28;45450;-86
2022/04/11 07:26:53;;;;;;;;;10.50;8.25;;;;;;;;5055408;28;47077;-86
2022/04/11 07:29:18;;;;;;;;;9.75;7.25;;;;;;;;5055932;28;45932;-87
2022/04/11 07:31:43;;;;;;;;;10.25;9.50;;;;;;;;5054173;28;45387;-87
2022/04/11 07:34:09;;;;;;;;;12.25;8.25;;;;;;;;5057876;28;45524;-88
2022/04/11 07:36:34;;;;;;;;;10.00;7.50;;;;;;;;5056427;28;47178;-87
2022/04/11 07:38:59;;;;;;;;;11.00;8.50;;;;;;;;5055785;28;45299;-87
2022/04/11 07:41:25;;;;;;;;;9.25;9.25;;;;;;;;5056605;28;45543;-86
2022/04/11 07:43:51;;;;;;;;;8.50;7.50;;;;;;;;5054695;28;45378;-88
2022/04/11 07:46:16;;;;;;;;;10.75;10.75;;;;;;;;5060754;28;46074;-88
2022/04/11 07:48:41;;;;;;;;;8.00;7.50;;;;;;;;5058633;28;45416;-87
2022/04/11 07:51:06;;;;;;;;;10.75;10.25;;;;;;;;5056350;28;45490;-91
2022/04/11 07:53:32;;;;;;;;;8.25;7.50;;;;;;;;5059154;28;45443;-82
2022/04/11 07:55:57;;;;;;;;;10.25;8.50;;;;;;;;5054884;28;45868;-83
2022/04/11 07:58:22;;;;;;;;;5.75;5.75;;;;;;;;5053748;28;45601;-84
2022/04/11 08:00:51;;;;;;;;;8.50;8.00;;;;;;;;5055806;28;45472;-83
2022/04/11 08:03:16;;;;;;;;;7.75;7.25;;;;;;;;5052294;28;45471;-83
2022/04/11 08:05:41;;;;;;;;;9.25;9.00;;;;;;;;5052652;28;45781;-84
2022/04/11 08:08:07;;;;;;;;;9.50;8.00;;;;;;;;5051794;28;45459;-84
2022/04/11 08:10:33;;;;;;;;;11.00;7.25;;;;;;;;5052982;28;45378;-84
2022/04/11 08:12:59;;;;;;;;;15.75;14.25;;;;;;;;5054183;28;45507;-83
2022/04/11 08:15:26;;;;;;;;;5.00;5.00;;;;;;;;5052941;28;47186;-83
2022/04/11 08:17:51;;;;;;;;;9.50;8.00;;;;;;;;5053110;28;45467;-83
2022/04/11 08:20:17;;;;;;;;;9.25;7.75;;;;;;;;5052076;28;45344;-84
2022/04/11 08:22:42;;;;;;;;;8.75;7.75;;;;;;;;5053124;28;45437;-83
2022/04/11 08:25:08;;;;;;;;;9.00;8.75;;;;;;;;5041412;28;46455;-83
2022/04/11 08:27:34;;;;;;;;;9.25;7.75;;;;;;;;5052456;28;45326;-83
2022/04/11 08:29:59;;;;;;;;;9.00;7.00;;;;;;;;5057321;28;44841;-82
2022/04/11 08:32:24;;;;;;;;;10.75;9.00;;;;;;;;5054584;28;45379;-83
2022/04/11 08:34:49;;;;;;;;;9.00;9.00;;;;;;;;5053724;28;45357;-84
2022/04/11 08:37:14;;;;;;;;;65.75;52.50;;;;;;;;5055933;28;45217;-84
2022/04/11 08:39:40;;;;;;;;;39.25;35.00;;;;;;;;5053416;28;45301;-84
2022/04/11 08:42:05;;;;;;;;;20.50;18.25;;;;;;;;5053561;28;45457;-83
2022/04/11 08:44:31;;;;;;;;;9.75;8.75;;;;;;;;5052157;28;46589;-84
2022/04/11 08:47:01;;;;;;;;;6.50;5.50;;;;;;;;5053161;28;45521;-85
2022/04/11 08:49:28;;;;;;;;;6.00;6.00;;;;;;;;5055128;28;45411;-81
2022/04/11 08:51:53;;;;;;;;;16.50;15.25;;;;;;;;5052791;28;45507;-83
2022/04/11 08:54:18;;;;;;;;;26.25;24.75;;;;;;;;5051612;28;46208;-83
2022/04/11 08:56:43;;;;;;;;;7.25;7.25;;;;;;;;5052593;28;45359;-82
2022/04/11 08:59:09;;;;;;;;;13.00;11.00;;;;;;;;5052540;28;45469;-82
2022/04/11 09:01:35;;;;;;;;;15.50;15.00;;;;;;;;5052160;28;45514;-82
2022/04/11 09:04:00;;;;;;;;;7.50;7.50;;;;;;;;5053221;28;46104;-83
2022/04/11 09:06:26;;;;;;;;;6.25;6.25;;;;;;;;5059357;28;45299;-83
2022/04/11 09:08:52;;;;;;;;;9.75;7.50;;;;;;;;5057958;28;45353;-82
2022/04/11 09:11:26;;;;;;;;;6.50;5.00;;;;;;;;5056145;28;45360;-83
2022/04/11 09:13:52;;;;;;;;;3.00;2.75;;;;;;;;5054822;28;46577;-81
2022/04/11 09:16:17;;;;;;;;;6.25;6.00;;;;;;;;5038636;28;45347;-82
2022/04/11 09:18:49;;;;;;;;;4.50;4.50;;;;;;;;5055154;28;45470;-83
2022/04/11 09:21:15;;;;;;;;;5.75;5.75;;;;;;;;5051285;28;45430;-83
2022/04/11 09:23:40;;;;;;;;;6.00;6.00;;;;;;;;5049887;28;46134;-83
2022/04/11 09:26:15;;;;;;;;;14.25;14.25;;;;;;;;5034742;28;45479;-83
2022/04/11 09:28:41;;;;;;;;;2.25;2.25;;;;;;;;5038920;28;45394;-82
2022/04/11 09:31:07;;;;;;;;;13.00;11.25;;;;;;;;5056245;28;45271;-82
2022/04/11 09:33:39;;;;;;;;;2.50;2.50;;;;;;;;5042657;28;47396;-82
2022/04/11 09:36:04;;;;;;;;;8.00;8.00;;;;;;;;5056192;28;45302;-83
2022/04/11 09:38:35;;;;;;;;;14.00;10.00;;;;;;;;5053185;28;45116;-83
2022/04/11 09:41:01;;;;;;;;;4.50;3.00;;;;;;;;5060077;28;45264;-82
2022/04/11 09:43:28;;;;;;;;;9.75;8.75;;;;;;;;5057449;28;47437;-83
2022/04/11 09:45:53;;;;;;;;;5.00;5.00;;;;;;;;5056431;28;45402;-83
2022/04/11 09:48:22;;;;;;;;;8.25;8.25;;;;;;;;5054495;28;45497;-83
2022/04/11 09:50:48;;;;;;;;;8.75;8.00;;;;;;;;5041871;28;45312;-84
2022/04/11 09:53:17;;;;;;;;;6.00;4.25;;;;;;;;5055116;28;46826;-84
2022/04/11 09:55:43;;;;;;;;;18.75;15.25;;;;;;;;5055664;28;45375;-84
2022/04/11 09:58:08;;;;;;;;;7.50;6.50;;;;;;;;5057446;28;45517;-83
2022/04/11 10:00:35;;;;;;;;;5.00;3.00;;;;;;;;5054820;28;45381;-82
2022/04/11 10:03:00;;;;;;;;;6.75;5.25;;;;;;;;5055906;28;46316;-82
2022/04/11 10:05:26;;;;;;;;;3.25;3.25;;;;;;;;5054297;28;45392;-82
2022/04/11 10:07:54;;;;;;;;;6.75;5.50;;;;;;;;5056948;28;45291;-82
2022/04/11 10:10:20;;;;;;;;;3.25;2.25;;;;;;;;5056513;28;45453;-82
2022/04/11 10:12:46;;;;;;;;;4.50;3.75;;;;;;;;5057458;28;45492;-83
2022/04/11 10:15:12;;;;;;;;;5.00;4.00;;;;;;;;5058365;28;45398;-83
2022/04/11 10:17:37;;;;;;;;;4.00;3.00;;;;;;;;5062379;28;45535;-83
2022/04/11 10:20:02;;;;;;;;;7.25;6.00;;;;;;;;5060175;28;45308;-83
2022/04/11 10:22:27;;;;;;;;;3.00;3.00;;;;;;;;5054847;28;47134;-82
2022/04/11 10:25:02;;;;;;;;;3.25;3.25;;;;;;;;5056727;28;45367;-83
2022/04/11 10:27:27;;;;;;;;;2.25;2.25;;;;;;;;5055084;28;45692;-83
2022/04/11 10:29:54;;;;;;;;;6.00;6.00;;;;;;;;5049564;28;45449;-83
2022/04/11 10:32:20;;;;;;;;;7.00;7.00;;;;;;;;5054334;28;46414;-83
2022/04/11 10:34:51;;;;;;;;;5.50;5.50;;;;;;;;5055506;28;45306;-82
2022/04/11 10:37:17;;;;;;;;;8.25;8.25;;;;;;;;5055790;28;45555;-84
2022/04/11 10:39:46;;;;;;;;;7.75;7.25;;;;;;;;5053478;28;45424;-84
2022/04/11 10:42:12;;;;;;;;;3.00;3.00;;;;;;;;5052019;28;46442;-83
2022/04/11 10:44:40;;;;;;;;;3.75;3.75;;;;;;;;5053922;28;45289;-83
2022/04/11 10:47:11;;;;;;;;;3.25;3.25;;;;;;;;5054778;28;45371;-83
2022/04/11 10:49:57;;;;;;;;;3.50;2.50;;;;;;;;5054455;28;45585;-83
2022/04/11 10:52:29;;;;;;;;;3.25;3.25;;;;;;;;5028800;28;46709;-83
2022/04/11 10:54:55;;;;;;;;;3.00;2.00;;;;;;;;5062099;28;45342;-81
2022/04/11 10:57:36;;;;;;;;;5.50;4.50;;;;;;;;5060444;28;45309;-82
2022/04/11 11:00:11;;;;;;;;;3.00;3.00;;;;;;;;5055941;28;45272;-83
2022/04/11 11:02:59;;;;;;;;;5.50;3.75;;;;;;;;5059257;28;46021;-83
2022/04/11 11:05:27;;;;;;;;;3.75;3.00;;;;;;;;5049316;27;45424;-82
2022/04/11 11:08:21;;;;;;;;;1.67;1.67;;;;;;;;5054472;28;45415;-82
2022/04/11 11:10:46;;;;;;;;;3.00;3.00;;;;;;;;5036138;28;45473;-83
2022/04/11 11:13:30;;;;;;;;;2.00;2.00;;;;;;;;5057669;28;47161;-83
2022/04/11 11:15:59;;;;;;;;;3.25;2.75;;;;;;;;5056339;28;45279;-83
2022/04/11 11:18:25;;;;;;;;;2.00;1.33;;;;;;;;5039636;28;45529;-82
2022/04/11 11:20:54;;;;;;;;;3.00;2.75;;;;;;;;5053752;28;45540;-82
2022/04/11 11:23:23;;;;;;;;;2.67;2.67;;;;;;;;5054708;28;46616;-82
2022/04/11 11:25:49;;;;;;;;;2.67;2.00;;;;;;;;5054693;28;45438;-82
2022/04/11 11:28:15;;;;;;;;;2.00;2.00;;;;;;;;5057283;28;45387;-82
2022/04/11 11:30:40;;;;;;;;;3.00;3.00;;;;;;;;5055988;28;45347;-82
2022/04/11 11:33:08;;;;;;;;;7.25;7.00;;;;;;;;5058104;28;45918;-82
2022/04/11 11:35:33;;;;;;;;;6.75;6.00;;;;;;;;5054472;28;45534;-82
2022/04/11 11:38:05;;;;;;;;;6.67;5.67;;;;;;;;5057394;28;45443;-82
2022/04/11 11:40:30;;;;;;;;;2.33;2.33;;;;;;;;5053999;28;45403;-82
2022/04/11 11:42:56;;;;;;;;;12.75;10.75;;;;;;;;5055315;28;46164;-82
2022/04/11 11:45:28;;;;;;;;;5.75;5.75;;;;;;;;5053603;28;45338;-82
2022/04/11 11:47:53;;;;;;;;;4.50;4.00;;;;;;;;5052058;28;45351;-82
2022/04/11 11:50:18;;;;;;;;;2.00;2.00;;;;;;;;5052788;28;45418;-82
2022/04/11 11:52:55;;;;;;;;;3.00;3.00;;;;;;;;5033811;28;47091;-83
2022/04/11 11:55:21;;;;;;;;;2.00;2.00;;;;;;;;5055005;28;45473;-83
2022/04/11 11:57:46;;;;;;;;;3.75;2.50;;;;;;;;5055826;28;45446;-84
2022/04/11 12:00:12;;;;;;;;;2.00;2.00;;;;;;;;5052873;28;44816;-84
2022/04/11 12:05:28;;;;;;;;;2.00;2.00;;;;;;;;5056497;28;44979;-84
2022/04/11 12:08:02;;;;;;;;;2.00;2.00;;;;;;;;5056097;28;45394;-82
2022/04/11 12:10:28;;;;;;;;;1.67;1.67;;;;;;;;5054449;28;45340;-84
2022/04/11 12:12:54;;;;;;;;;2.00;2.00;;;;;;;;5050845;28;45336;-83
2022/04/11 12:15:19;;;;;;;;;2.50;2.50;;;;;;;;5052846;28;49753;-83
2022/04/11 12:17:45;;;;;;;;;2.00;2.00;;;;;;;;5053865;28;45569;-83
2022/04/11 12:20:13;;;;;;;;;1.00;1.00;;;;;;;;5054055;28;45506;-82
2022/04/11 12:22:38;;;;;;;;;3.00;3.00;;;;;;;;5037583;28;46173;-82
2022/04/11 12:25:22;;;;;;;;;4.00;4.00;;;;;;;;5055817;28;45312;-83
2022/04/11 12:27:49;;;;;;;;;1.00;0.33;;;;;;;;5055925;28;45390;-83
2022/04/11 12:30:14;;;;;;;;;3.00;3.00;;;;;;;;5053815;28;45577;-82
2022/04/11 12:32:39;;;;;;;;;4.00;4.00;;;;;;;;5054249;28;47941;-82
2022/04/11 12:35:15;;;;;;;;;3.00;3.00;;;;;;;;5054195;28;45407;-82
2022/04/11 12:37:48;;;;;;;;;3.00;2.67;;;;;;;;5053439;28;45435;-83
2022/04/11 12:40:14;;;;;;;;;4.00;4.00;;;;;;;;5051766;28;45514;-83
2022/04/11 12:42:39;;;;;;;;;5.50;3.75;;;;;;;;5045706;28;46128;-83
2022/04/11 12:45:05;;;;;;;;;1.50;1.50;;;;;;;;5055103;28;45327;-82
2022/04/11 12:47:32;;;;;;;;;3.00;3.00;;;;;;;;5055708;28;45419;-82
2022/04/11 12:49:57;;;;;;;;;4.50;3.50;;;;;;;;5054567;28;45422;-83
2022/04/11 12:52:23;;;;;;;;;3.00;3.00;;;;;;;;5053967;28;47056;-83
2022/04/11 12:54:50;;;;;;;;;2.00;2.00;;;;;;;;5053352;28;45441;-83
2022/04/11 12:57:21;;;;;;;;;4.00;3.00;;;;;;;;5053240;28;45700;-82
2022/04/11 12:59:47;;;;;;;;;3.00;3.00;;;;;;;;5054023;28;45346;-83
2022/04/11 13:02:23;;;;;;;;;4.25;4.25;;;;;;;;5053514;28;45396;-83
2022/04/11 13:04:51;;;;;;;;;5.00;5.00;;;;;;;;5021345;28;45474;-83
2022/04/11 13:07:17;;;;;;;;;4.00;4.00;;;;;;;;5054638;28;45344;-83
2022/04/11 13:09:42;;;;;;;;;5.00;3.75;;;;;;;;5045173;28;45511;-84
2022/04/11 13:12:19;;;;;;;;;4.00;3.00;;;;;;;;5054562;28;46087;-83
2022/04/11 13:14:45;;;;;;;;;3.67;3.67;;;;;;;;5039338;28;45461;-84
2022/04/11 13:19:55;;;;;;;;;4.33;4.33;;;;;;;;5057230;28;44815;-84
2022/04/11 13:22:21;;;;;;;;;4.67;4.67;;;;;;;;5053406;28;46417;-83
2022/04/11 13:24:48;;;;;;;;;3.00;3.00;;;;;;;;5051773;28;45314;-84
2022/04/11 13:27:13;;;;;;;;;5.25;5.25;;;;;;;;5050509;28;45214;-84
2022/04/11 13:29:39;;;;;;;;;3.00;3.00;;;;;;;;5052349;28;45293;-83
2022/04/11 13:32:04;;;;;;;;;3.00;3.00;;;;;;;;5052061;28;45366;-85
2022/04/11 13:34:29;;;;;;;;;3.00;3.00;;;;;;;;5052338;28;45474;-84
2022/04/11 13:36:55;;;;;;;;;4.33;3.00;;;;;;;;5054074;28;45274;-82
2022/04/11 13:39:21;;;;;;;;;3.00;3.00;;;;;;;;5046397;28;45450;-84
2022/04/11 13:41:49;;;;;;;;;5.75;4.25;;;;;;;;5051566;28;47058;-83
2022/04/11 13:44:17;;;;;;;;;4.67;4.67;;;;;;;;5051733;28;45399;-83
2022/04/11 13:46:44;;;;;;;;;4.00;3.00;;;;;;;;5053489;28;45353;-83
2022/04/11 13:49:10;;;;;;;;;2.67;2.67;;;;;;;;5053852;28;45371;-83
2022/04/11 13:51:35;;;;;;;;;4.00;4.00;;;;;;;;5050916;28;46095;-83
2022/04/11 13:54:01;;;;;;;;;0.00;0.00;;;;;;;;5053714;28;47975;-83
2022/04/11 13:56:26;;;;;;;;;2.00;2.00;;;;;;;;5050896;28;45539;-84
2022/04/11 13:58:51;;;;;;;;;2.67;2.67;;;;;;;;5050731;28;45516;-84
2022/04/11 14:01:17;;;;;;;;;2.00;2.00;;;;;;;;5053514;28;46257;-83
2022/04/11 14:03:42;;;;;;;;;3.33;2.67;;;;;;;;5052359;28;45344;-85
2022/04/11 14:06:08;;;;;;;;;3.00;1.75;;;;;;;;5046515;28;45568;-83
2022/04/11 14:08:33;;;;;;;;;3.00;3.00;;;;;;;;5050822;28;45542;-85
2022/04/11 14:10:58;;;;;;;;;1.00;1.00;;;;;;;;5051834;28;46063;-85
2022/04/11 14:13:24;;;;;;;;;0.00;0.00;;;;;;;;5052034;28;45593;-85
2022/04/11 14:15:49;;;;;;;;;1.00;1.00;;;;;;;;5053575;28;45332;-84
2022/04/11 14:18:15;;;;;;;;;3.00;3.00;;;;;;;;5053569;28;45467;-84
2022/04/11 14:20:41;;;;;;;;;4.00;2.67;;;;;;;;5055821;28;45447;-84
2022/04/11 14:23:07;;;;;;;;;3.00;1.50;;;;;;;;5057361;28;45515;-85
2022/04/11 14:25:33;;;;;;;;;1.67;1.67;;;;;;;;5060251;28;45383;-84
2022/04/11 14:27:58;;;;;;;;;3.00;2.00;;;;;;;;5061505;28;45182;-83
2022/04/11 14:30:23;;;;;;;;;6.75;5.75;;;;;;;;5056349;28;47960;-83
2022/04/11 14:32:49;;;;;;;;;1.67;1.67;;;;;;;;5056140;28;45453;-83
2022/04/11 14:35:14;;;;;;;;;5.00;4.50;;;;;;;;5062844;28;45315;-85
2022/04/11 14:37:41;;;;;;;;;2.00;2.00;;;;;;;;5068102;28;45411;-86
2022/04/11 14:40:07;;;;;;;;;2.25;2.25;;;;;;;;5068338;28;46435;-84